Time;durP1;ratioP1;P1;durP2;ratioP2;P2;SDS_P1;SDS_P2;PMS_P1;PMS_P2;Temp;Humidity;BMP_temperature;BMP_pressure;BME280_temperature;BME280_humidity;BME280_pressure;Samples;Min_cycle;Max_cycle;Signal;HPM_P1;HPM_P2
2021/06/29 00:00:25;;;;;;;11.20;8.60;;;;;;;16.65;71.18;101347.59;4079967;29;20063;-83
2021/06/29 00:02:26;;;;;;;11.80;9.60;;;;;;;16.65;71.29;101356.75;4080084;29;20050;-83
2021/06/29 00:04:26;;;;;;;15.65;8.55;;;;;;;16.60;71.22;101356.63;4063829;29;20063;-83
2021/06/29 00:06:27;;;;;;;10.45;9.10;;;;;;;16.50;71.56;101348.16;4062966;29;20040;-83
2021/06/29 00:08:27;;;;;;;11.18;9.05;;;;;;;16.63;71.46;101350.59;4078792;29;20064;-82
2021/06/29 00:10:28;;;;;;;12.00;9.23;;;;;;;16.60;71.66;101355.78;4082753;29;20034;-83
2021/06/29 00:12:29;;;;;;;15.07;9.27;;;;;;;16.58;71.86;101359.63;4080588;29;20032;-82
2021/06/29 00:14:29;;;;;;;11.85;10.13;;;;;;;16.51;72.00;101353.44;4050417;29;20032;-83
2021/06/29 00:16:30;;;;;;;16.20;9.82;;;;;;;16.57;71.43;101346.91;4082714;29;20062;-83
2021/06/29 00:18:30;;;;;;;11.32;8.55;;;;;;;16.64;71.49;101356.97;4087122;29;20046;-83
2021/06/29 00:20:31;;;;;;;12.00;9.80;;;;;;;16.62;71.42;101343.41;4068304;29;20043;-83
2021/06/29 00:22:31;;;;;;;14.70;9.95;;;;;;;16.50;71.86;101329.66;4067902;29;20403;-83
2021/06/29 00:24:31;;;;;;;11.38;10.10;;;;;;;16.62;71.97;101332.34;4083387;29;20035;-83
2021/06/29 00:26:32;;;;;;;12.23;9.63;;;;;;;16.62;71.40;101329.59;4083958;29;20063;-83
2021/06/29 00:28:33;;;;;;;12.27;9.23;;;;;;;16.60;71.60;101323.44;4076357;29;20036;-83
2021/06/29 00:30:33;;;;;;;14.32;10.48;;;;;;;16.60;71.64;101328.97;4081228;29;20110;-84
2021/06/29 00:32:35;;;;;;;14.20;9.95;;;;;;;16.55;71.56;101315.09;4080550;29;20047;-84
2021/06/29 00:34:35;;;;;;;16.30;10.80;;;;;;;16.55;71.35;101312.31;4065685;29;20080;-84
2021/06/29 00:36:35;;;;;;;12.52;10.52;;;;;;;16.52;71.29;101313.66;4066434;29;20047;-86
2021/06/29 00:38:36;;;;;;;16.45;11.75;;;;;;;16.54;71.37;101329.97;4074027;29;20036;-83
2021/06/29 00:40:36;;;;;;;13.07;10.57;;;;;;;16.53;71.48;101328.31;4081989;29;20031;-83
2021/06/29 00:42:37;;;;;;;12.35;11.02;;;;;;;16.46;71.73;101328.47;4086241;29;20560;-82
2021/06/29 00:44:38;;;;;;;14.02;11.73;;;;;;;16.44;71.88;101324.31;4085684;29;20039;-82
2021/06/29 00:46:38;;;;;;;20.88;11.55;;;;;;;16.45;71.86;101320.44;4064665;29;20434;-82
2021/06/29 00:48:38;;;;;;;14.57;11.45;;;;;;;16.45;71.90;101337.00;4083133;29;20028;-82
2021/06/29 00:50:42;;;;;;;17.05;12.40;;;;;;;16.46;72.02;101327.66;4067557;29;20066;-81
2021/06/29 00:52:42;;;;;;;17.20;11.23;;;;;;;16.41;71.84;101324.81;4082029;29;20075;-82
2021/06/29 00:54:43;;;;;;;11.68;10.48;;;;;;;16.51;71.83;101336.00;4083909;29;20028;-82
2021/06/29 00:56:47;;;;;;;16.77;12.38;;;;;;;16.48;71.93;101331.84;4082444;29;20063;-82
2021/06/29 00:58:48;;;;;;;13.48;11.30;;;;;;;16.51;71.63;101333.25;4086520;29;20089;-81
2021/06/29 01:00:51;;;;;;;15.73;11.30;;;;;;;16.50;71.54;101328.81;4065831;29;20047;-81
2021/06/29 01:02:51;;;;;;;14.70;11.40;;;;;;;16.44;71.77;101324.31;4080784;29;20100;-82
2021/06/29 01:04:51;;;;;;;13.15;10.85;;;;;;;16.43;71.72;101323.44;4078313;29;20043;-81
2021/06/29 01:06:53;;;;;;;13.68;11.23;;;;;;;16.51;71.87;101333.25;4040161;29;20116;-82
2021/06/29 01:08:54;;;;;;;15.07;10.55;;;;;;;16.46;71.75;101324.88;4089135;29;20031;-82
2021/06/29 01:10:54;;;;;;;17.05;11.82;;;;;;;16.43;72.41;101323.44;4082809;29;20590;-82
2021/06/29 01:12:55;;;;;;;15.02;11.38;;;;;;;16.36;72.29;101307.03;4083824;29;20099;-82
2021/06/29 01:14:55;;;;;;;15.90;11.18;;;;;;;16.44;72.04;101304.97;4082654;29;20031;-82
2021/06/29 01:16:57;;;;;;;15.60;9.98;;;;;;;16.46;72.21;101313.84;4065367;29;20040;-81
2021/06/29 01:18:58;;;;;;;17.15;11.48;;;;;;;16.50;71.87;101299.25;4081667;29;20267;-83
2021/06/29 01:20:58;;;;;;;18.65;11.13;;;;;;;16.43;71.79;101295.81;4085074;29;20038;-82
2021/06/29 01:23:05;;;;;;;19.27;11.02;;;;;;;16.37;71.78;101289.41;4072989;29;20066;-82
2021/06/29 01:25:08;;;;;;;18.00;10.80;;;;;;;16.44;71.61;101305.78;4067855;29;20087;-83
2021/06/29 01:29:22;;;;;;;17.50;10.98;;;;;;;16.43;71.69;101295.00;4075497;29;20039;-83
2021/06/29 01:31:23;;;;;;;17.10;9.52;;;;;;;16.40;71.55;101296.31;4066444;29;20058;-82
2021/06/29 01:33:24;;;;;;;15.00;9.48;;;;;;;16.42;71.47;101283.13;4069821;29;20043;-83
2021/06/29 01:35:24;;;;;;;18.63;9.90;;;;;;;16.40;71.14;101282.50;4082469;29;20028;-82
2021/06/29 01:37:24;;;;;;;17.58;9.32;;;;;;;16.40;71.29;101285.28;4082619;29;20039;-82
2021/06/29 01:39:25;;;;;;;14.80;9.13;;;;;;;16.42;70.80;101271.22;4064809;29;20096;-81
2021/06/29 01:41:26;;;;;;;20.98;10.60;;;;;;;16.34;71.12;101281.59;4065484;29;20036;-82
2021/06/29 01:45:48;;;;;;;15.25;9.55;;;;;;;16.34;71.19;101276.09;4080883;29;20039;-81
2021/06/29 01:49:49;;;;;;;16.92;8.70;;;;;;;16.39;71.04;101281.69;4082918;29;20043;-82
2021/06/29 01:51:50;;;;;;;19.42;9.52;;;;;;;16.38;71.07;101282.75;4082667;29;20447;-84
2021/06/29 01:53:52;;;;;;;13.02;8.32;;;;;;;16.39;71.30;101278.91;4071629;29;20056;-82
2021/06/29 01:55:53;;;;;;;21.35;10.13;;;;;;;16.30;71.54;101268.56;4082087;29;20050;-82
2021/06/29 01:57:53;;;;;;;14.82;8.68;;;;;;;16.44;71.31;101280.09;4080346;29;20035;-81
2021/06/29 01:59:54;;;;;;;19.35;8.75;;;;;;;16.36;71.48;101287.72;4065152;29;21115;-81
2021/06/29 02:01:54;;;;;;;17.08;9.30;;;;;;;16.30;71.80;101277.66;4077593;29;20418;-82
2021/06/29 02:03:55;;;;;;;16.92;9.38;;;;;;;16.29;71.59;101275.97;4083108;29;20035;-81
2021/06/29 02:05:55;;;;;;;14.73;8.90;;;;;;;16.41;71.12;101283.38;4081440;29;20778;-81
2021/06/29 02:07:55;;;;;;;17.80;8.98;;;;;;;16.31;70.96;101265.53;4048425;29;20044;-81
2021/06/29 02:09:56;;;;;;;15.15;8.63;;;;;;;16.40;71.22;101293.56;4080208;29;20114;-81
2021/06/29 02:11:57;;;;;;;14.93;8.98;;;;;;;16.45;71.20;101284.50;4066758;29;20052;-81
2021/06/29 02:13:57;;;;;;;17.85;10.15;;;;;;;16.35;71.18;101261.16;4074301;29;20447;-83
2021/06/29 02:16:00;;;;;;;16.92;9.57;;;;;;;16.36;71.01;101260.09;4065064;29;20043;-81
2021/06/29 02:18:00;;;;;;;20.60;9.95;;;;;;;16.37;71.23;101259.00;4086620;29;20036;-81
2021/06/29 02:20:01;;;;;;;14.75;8.88;;;;;;;16.41;71.13;101264.03;4083003;29;20027;-82
2021/06/29 02:22:04;;;;;;;14.93;9.50;;;;;;;16.45;71.18;101270.69;4063303;29;20043;-81
2021/06/29 02:24:05;;;;;;;16.92;10.25;;;;;;;16.42;70.90;101273.97;4080705;29;20495;-81
2021/06/29 02:26:06;;;;;;;13.25;8.63;;;;;;;16.37;71.13;101270.06;4081658;29;20058;-81
2021/06/29 02:28:06;;;;;;;12.73;7.93;;;;;;;16.45;71.02;101271.56;4083198;29;20433;-81
2021/06/29 02:30:08;;;;;;;17.05;10.25;;;;;;;16.35;71.02;101263.94;4080100;29;20036;-84
2021/06/29 02:32:08;;;;;;;19.30;8.77;;;;;;;16.41;71.04;101264.03;4065393;29;20040;-82
2021/06/29 02:34:09;;;;;;;17.40;7.60;;;;;;;16.43;70.96;101267.38;4064872;29;20046;-83
2021/06/29 02:36:09;;;;;;;18.02;8.57;;;;;;;16.47;70.93;101263.03;4082497;29;20032;-83
2021/06/29 02:38:10;;;;;;;16.90;8.43;;;;;;;16.46;71.14;101262.16;4089158;29;20112;-84
2021/06/29 02:40:11;;;;;;;12.65;8.13;;;;;;;16.41;71.22;101252.97;4081124;29;20042;-83
2021/06/29 02:42:12;;;;;;;17.23;8.70;;;;;;;16.48;70.93;101257.25;4068771;29;20040;-83
2021/06/29 02:44:12;;;;;;;15.63;8.02;;;;;;;16.48;71.01;101256.38;4081257;29;20418;-84
2021/06/29 02:46:13;;;;;;;20.33;9.38;;;;;;;16.46;70.83;101248.34;4079447;29;20115;-83
2021/06/29 02:48:13;;;;;;;13.98;8.30;;;;;;;16.48;71.01;101259.16;4077054;29;20031;-84
2021/06/29 02:50:15;;;;;;;15.60;8.40;;;;;;;16.43;71.05;101251.63;4080844;29;20079;-85
2021/06/29 02:52:15;;;;;;;13.32;8.02;;;;;;;16.49;70.78;101244.25;4077549;29;20504;-86
2021/06/29 02:54:16;;;;;;;11.43;7.90;;;;;;;16.48;70.88;101239.81;4084820;29;20040;-83
2021/06/29 02:58:35;;;;;;;16.98;7.82;;;;;;;16.42;71.02;101243.56;4062315;29;20478;-83
2021/06/29 03:00:36;;;;;;;19.08;8.40;;;;;;;16.35;71.33;101243.75;4080800;29;20043;-83
2021/06/29 03:02:36;;;;;;;16.45;8.43;;;;;;;16.45;71.09;101248.59;4080481;29;20039;-83
2021/06/29 03:04:37;;;;;;;15.57;8.65;;;;;;;16.34;71.50;101237.41;4081788;29;20086;-84
2021/06/29 03:06:37;;;;;;;12.85;8.05;;;;;;;16.29;71.14;101206.09;4061973;29;20119;-84
2021/06/29 03:08:38;;;;;;;19.10;8.13;;;;;;;16.37;71.36;101225.00;4076147;29;20024;-83
2021/06/29 03:10:38;;;;;;;18.88;7.25;;;;;;;16.37;71.46;101228.63;4048599;29;20032;-85
2021/06/29 03:12:39;;;;;;;21.48;9.05;;;;;;;16.23;71.98;101223.69;4039251;29;20033;-83
2021/06/29 03:14:41;;;;;;;19.35;8.43;;;;;;;16.32;71.51;101231.28;4082140;29;20518;-84
2021/06/29 03:16:41;;;;;;;17.75;8.00;;;;;;;16.29;71.97;101231.78;4081280;29;20046;-84
2021/06/29 03:18:42;;;;;;;17.58;8.38;;;;;;;16.37;71.63;101238.81;4082735;29;20039;-83
2021/06/29 03:20:42;;;;;;;14.43;7.53;;;;;;;16.31;71.54;101228.75;4080986;29;20036;-85
2021/06/29 03:22:43;;;;;;;19.10;8.25;;;;;;;16.35;71.48;101224.41;4066663;29;20558;-85
2021/06/29 03:24:43;;;;;;;17.30;8.55;;;;;;;16.36;71.45;101224.16;4079626;29;20035;-87
2021/06/29 03:26:43;;;;;;;18.92;8.00;;;;;;;16.29;71.53;101223.50;4048296;29;20093;-84
2021/06/29 03:28:44;;;;;;;17.05;8.13;;;;;;;16.29;71.74;101222.66;4065296;29;20486;-84
2021/06/29 03:30:44;;;;;;;18.25;8.90;;;;;;;16.33;71.77;101234.91;4052908;29;20024;-85
2021/06/29 03:32:45;;;;;;;13.68;7.75;;;;;;;16.35;71.38;101232.72;4059178;29;20032;-86
2021/06/29 03:34:45;;;;;;;16.52;7.70;;;;;;;16.37;71.23;101242.44;4063530;29;20739;-85
2021/06/29 03:36:46;;;;;;;21.58;9.05;;;;;;;16.43;71.32;101240.56;4077610;29;20043;-84
2021/06/29 03:38:46;;;;;;;20.25;8.63;;;;;;;16.39;71.42;101234.72;4067578;29;20043;-84
2021/06/29 03:40:47;;;;;;;16.88;7.90;;;;;;;16.32;71.56;101227.69;4080524;29;20509;-84
2021/06/29 03:42:47;;;;;;;17.95;8.77;;;;;;;16.37;71.48;101223.09;4069516;29;20486;-85
2021/06/29 03:44:48;;;;;;;15.30;7.32;;;;;;;16.39;71.44;101234.72;4048429;29;20108;-84
2021/06/29 03:46:48;;;;;;;14.57;8.13;;;;;;;16.37;71.25;101230.53;4083749;29;20051;-84
2021/06/29 03:48:49;;;;;;;19.15;8.20;;;;;;;16.35;71.47;101235.47;4082947;29;20570;-83
2021/06/29 03:50:49;;;;;;;17.65;8.93;;;;;;;16.36;71.25;101231.63;4085598;29;20090;-85
2021/06/29 03:52:50;;;;;;;17.30;8.82;;;;;;;16.39;71.26;101236.66;4083006;29;20707;-86
2021/06/29 03:54:50;;;;;;;15.20;8.13;;;;;;;16.43;71.25;101239.72;4065846;29;20407;-85
2021/06/29 03:56:51;;;;;;;17.15;8.68;;;;;;;16.43;71.07;101243.31;4074074;29;20039;-85
2021/06/29 03:58:52;;;;;;;21.70;8.13;;;;;;;16.40;71.39;101238.31;4080608;29;20039;-84
2021/06/29 04:00:53;;;;;;;18.88;9.15;;;;;;;16.29;71.60;101229.03;4084445;29;20051;-84
2021/06/29 04:02:53;;;;;;;15.77;8.40;;;;;;;16.42;71.37;101232.53;4042537;29;20041;-84
2021/06/29 04:04:55;;;;;;;15.88;8.38;;;;;;;16.30;71.42;101230.69;4083409;29;20360;-85
2021/06/29 04:06:55;;;;;;;16.48;8.27;;;;;;;16.30;71.42;101236.22;4080648;29;20032;-83
2021/06/29 04:08:57;;;;;;;21.83;9.48;;;;;;;16.32;71.48;101230.44;4070996;29;20043;-86
2021/06/29 04:10:57;;;;;;;18.65;8.73;;;;;;;16.29;71.45;101223.50;4069271;29;20698;-83
2021/06/29 04:12:58;;;;;;;17.23;7.60;;;;;;;16.39;71.01;101218.13;4069686;29;20064;-85
2021/06/29 04:14:58;;;;;;;24.85;7.82;;;;;;;16.24;71.53;101200.50;4082664;29;20124;-83
2021/06/29 04:16:59;;;;;;;17.65;8.48;;;;;;;16.32;71.30;101220.22;4082236;29;20725;-84
2021/06/29 04:18:59;;;;;;;17.42;7.50;;;;;;;16.32;71.23;101233.22;4080320;29;20040;-84
2021/06/29 04:20:59;;;;;;;16.80;8.45;;;;;;;16.26;71.14;101226.75;4067593;29;20063;-83
2021/06/29 04:23:00;;;;;;;18.48;8.27;;;;;;;16.39;70.92;101240.25;4082491;29;20418;-86
2021/06/29 04:25:01;;;;;;;22.63;8.93;;;;;;;16.42;70.59;101235.28;4068231;29;20072;-85
2021/06/29 04:27:03;;;;;;;13.90;7.32;;;;;;;16.42;70.55;101235.28;4087338;29;20086;-83
2021/06/29 04:29:04;;;;;;;14.13;8.70;;;;;;;16.43;70.33;101242.50;4081977;29;20900;-84
2021/06/29 04:31:04;;;;;;;12.30;6.40;;;;;;;16.51;70.52;101245.69;4079306;29;20040;-84
2021/06/29 04:33:05;;;;;;;14.05;7.13;;;;;;;16.44;70.09;101236.72;4077693;29;20028;-84
2021/06/29 04:35:06;;;;;;;22.02;7.75;;;;;;;16.56;69.96;101233.88;4087791;29;20042;-84
2021/06/29 04:37:07;;;;;;;17.83;7.32;;;;;;;16.52;70.16;101222.47;4091765;29;20036;-85
2021/06/29 04:39:08;;;;;;;13.57;7.43;;;;;;;16.56;70.10;101222.81;4083105;29;20047;-85
2021/06/29 04:41:08;;;;;;;18.90;8.50;;;;;;;16.50;70.38;101216.38;4067817;29;20407;-84
2021/06/29 04:43:08;;;;;;;14.45;7.75;;;;;;;16.49;70.10;101202.81;4083115;29;20487;-84
2021/06/29 04:45:09;;;;;;;16.70;7.57;;;;;;;16.55;70.45;101221.94;4081931;28;20035;-83
2021/06/29 04:47:10;;;;;;;18.60;7.88;;;;;;;16.60;70.42;101214.84;4083281;29;20072;-84
2021/06/29 04:49:10;;;;;;;17.35;6.93;;;;;;;16.52;70.54;101222.47;4052945;29;20477;-84
2021/06/29 04:51:12;;;;;;;12.73;6.55;;;;;;;16.53;70.44;101218.63;4083169;29;20063;-83
2021/06/29 04:53:12;;;;;;;15.98;7.40;;;;;;;16.58;70.63;101231.66;4080331;29;20038;-84
2021/06/29 04:55:13;;;;;;;13.63;6.88;;;;;;;16.61;70.38;101227.56;4083828;29;20402;-84
2021/06/29 04:57:13;;;;;;;16.10;6.47;;;;;;;16.58;70.26;101229.75;4066236;29;20036;-84
2021/06/29 04:59:16;;;;;;;12.68;6.35;;;;;;;16.54;70.36;101223.06;4079768;29;20032;-84
2021/06/29 05:01:16;;;;;;;14.93;7.07;;;;;;;16.62;70.13;101221.78;4074802;29;20083;-84
2021/06/29 05:03:17;;;;;;;15.05;6.68;;;;;;;16.67;70.08;101223.81;4081044;29;20028;-83
2021/06/29 05:05:18;;;;;;;17.13;7.68;;;;;;;16.52;70.10;101211.41;4083136;29;20040;-84
2021/06/29 05:07:18;;;;;;;12.98;7.55;;;;;;;16.50;70.09;101212.78;4073508;29;20081;-87
2021/06/29 05:09:19;;;;;;;18.77;7.13;;;;;;;16.48;69.90;101209.41;4065510;29;20032;-84
2021/06/29 05:11:19;;;;;;;18.98;8.18;;;;;;;16.41;70.14;101222.59;4052022;29;20036;-87
2021/06/29 05:13:19;;;;;;;15.90;7.45;;;;;;;16.58;69.59;101220.63;4081655;29;20828;-84
2021/06/29 05:15:20;;;;;;;17.40;7.43;;;;;;;16.46;70.19;101206.06;4085181;29;20074;-85
2021/06/29 05:17:21;;;;;;;16.48;7.55;;;;;;;16.43;70.24;101195.53;4082370;29;20042;-84
2021/06/29 05:19:21;;;;;;;20.42;7.45;;;;;;;16.36;70.17;101218.66;4083557;29;20059;-86
2021/06/29 05:21:21;;;;;;;13.25;7.15;;;;;;;16.45;70.35;101220.97;4070588;29;20043;-86
2021/06/29 05:23:22;;;;;;;15.10;7.35;;;;;;;16.48;70.16;101218.56;4064920;29;20036;-85
2021/06/29 05:25:23;;;;;;;16.38;7.18;;;;;;;16.49;70.20;101220.22;4086997;29;20031;-85
2021/06/29 05:27:23;;;;;;;22.20;7.82;;;;;;;16.52;70.36;101222.47;4068040;29;20737;-83
2021/06/29 05:29:24;;;;;;;14.95;6.85;;;;;;;16.55;70.03;101230.25;4067108;29;20044;-85
2021/06/29 05:31:27;;;;;;;17.70;7.00;;;;;;;16.59;70.27;101227.84;4061866;29;20164;-84
2021/06/29 05:33:28;;;;;;;17.63;7.32;;;;;;;16.61;70.08;101224.81;4048801;29;20044;-85
2021/06/29 05:35:28;;;;;;;22.58;7.45;;;;;;;16.57;70.70;101225.31;4052183;29;20112;-85
2021/06/29 05:37:29;;;;;;;16.88;8.25;;;;;;;16.61;70.49;101222.88;4067386;29;20419;-86
2021/06/29 05:39:29;;;;;;;20.27;8.88;;;;;;;16.65;70.37;101220.47;4052760;29;20036;-87
2021/06/29 05:41:30;;;;;;;16.40;7.93;;;;;;;16.66;70.39;101206.38;4086526;29;20406;-87
2021/06/29 05:43:30;;;;;;;21.05;8.68;;;;;;;16.74;70.38;101219.78;4081569;29;20066;-85
2021/06/29 05:45:31;;;;;;;21.75;7.90;;;;;;;16.70;70.38;101217.78;4060143;29;20043;-84
2021/06/29 05:47:34;;;;;;;20.13;8.90;;;;;;;16.63;70.13;101211.56;4066295;29;20408;-85
2021/06/29 05:49:36;;;;;;;19.40;9.68;;;;;;;16.65;70.38;101209.41;4063399;29;20092;-85
2021/06/29 05:51:37;;;;;;;20.65;8.27;;;;;;;16.77;70.38;101206.53;4077472;29;20098;-85
2021/06/29 05:53:38;;;;;;;18.77;9.63;;;;;;;16.45;71.43;101201.63;4081994;29;20560;-84
2021/06/29 05:55:38;;;;;;;18.95;9.50;;;;;;;16.44;71.87;101200.81;4087887;29;20058;-83
2021/06/29 05:57:39;;;;;;;18.58;9.25;;;;;;;16.39;71.76;101196.03;4085071;29;20028;-82
2021/06/29 05:59:40;;;;;;;19.33;10.15;;;;;;;16.67;70.80;101199.78;4084975;29;20031;-82
2021/06/29 06:01:41;;;;;;;22.33;10.43;;;;;;;16.67;70.88;101197.00;4063538;29;20032;-82
2021/06/29 06:03:41;;;;;;;23.15;10.70;;;;;;;16.83;70.93;101214.63;4080807;29;20086;-82
2021/06/29 06:05:42;;;;;;;20.42;10.45;;;;;;;16.85;70.78;101217.13;4089111;29;20057;-83
2021/06/29 06:07:42;;;;;;;22.88;10.50;;;;;;;16.84;70.80;101226.56;4066052;29;20036;-82
2021/06/29 06:09:43;;;;;;;23.90;11.48;;;;;;;16.91;70.23;101224.41;4054117;29;20032;-84
2021/06/29 06:11:44;;;;;;;18.50;10.85;;;;;;;16.91;70.46;101236.31;4062089;29;20044;-85
2021/06/29 06:13:46;;;;;;;21.10;10.57;;;;;;;16.85;70.21;101230.97;4080808;29;20079;-84
2021/06/29 06:15:47;;;;;;;22.58;10.57;;;;;;;16.92;70.41;101232.44;4081248;29;20081;-85
2021/06/29 06:17:48;;;;;;;19.05;9.77;;;;;;;16.88;70.16;101224.91;4081387;29;20040;-87
2021/06/29 06:19:48;;;;;;;19.58;10.43;;;;;;;16.88;70.57;101241.50;4065155;29;20064;-85
2021/06/29 06:21:49;;;;;;;17.50;10.25;;;;;;;16.85;70.07;101233.72;4081891;29;20032;-84
2021/06/29 06:23:50;;;;;;;25.60;11.35;;;;;;;16.87;70.40;101248.16;4064476;29;20050;-84
2021/06/29 06:25:50;;;;;;;18.60;11.00;;;;;;;16.97;70.24;101239.16;4057595;29;20128;-83
2021/06/29 06:27:51;;;;;;;21.05;10.52;;;;;;;16.87;70.18;101232.38;4061803;29;20066;-83
2021/06/29 06:29:51;;;;;;;21.88;10.75;;;;;;;17.06;69.96;101243.97;4060204;29;20043;-81
2021/06/29 06:31:53;;;;;;;24.52;10.85;;;;;;;17.01;69.91;101254.97;4080528;29;20047;-83
2021/06/29 06:33:53;;;;;;;17.13;9.05;;;;;;;16.97;70.14;101256.56;4080025;29;20028;-84
2021/06/29 06:35:54;;;;;;;22.58;11.10;;;;;;;16.95;70.32;101253.22;4064427;29;20063;-85
2021/06/29 06:37:55;;;;;;;21.83;10.65;;;;;;;16.87;70.74;101256.44;4063773;29;20059;-84
2021/06/29 06:39:55;;;;;;;22.35;10.30;;;;;;;16.91;70.36;101250.16;4084160;29;20031;-87
2021/06/29 06:41:55;;;;;;;18.70;10.93;;;;;;;16.87;70.60;101256.44;4063109;29;20105;-85
2021/06/29 06:43:56;;;;;;;23.08;10.40;;;;;;;17.06;70.51;101263.31;4048872;29;20132;-84
2021/06/29 06:45:57;;;;;;;20.02;10.82;;;;;;;17.07;70.54;101265.00;4063227;29;20063;-83
2021/06/29 06:47:57;;;;;;;18.38;10.75;;;;;;;17.07;70.15;101258.66;4064227;29;20036;-83
2021/06/29 06:49:58;;;;;;;25.13;11.25;;;;;;;17.05;70.60;101267.22;4046417;29;20115;-83
2021/06/29 06:51:58;;;;;;;23.45;11.40;;;;;;;17.01;70.65;101252.22;4083256;28;20418;-84
2021/06/29 06:53:59;;;;;;;28.00;11.23;;;;;;;17.01;70.74;101267.97;4079334;29;20035;-85
2021/06/29 06:56:00;;;;;;;25.70;11.55;;;;;;;17.00;70.40;101260.75;4061752;29;20071;-86
2021/06/29 06:58:00;;;;;;;23.58;11.68;;;;;;;16.99;70.33;101271.00;4079427;29;20050;-84
2021/06/29 07:00:02;;;;;;;17.83;9.88;;;;;;;16.95;70.65;101267.06;4063126;29;20059;-82
2021/06/29 07:02:03;;;;;;;20.42;9.73;;;;;;;16.97;70.81;101273.16;4082033;29;20036;-83
2021/06/29 07:04:04;;;;;;;26.00;11.43;;;;;;;16.89;71.00;101265.31;4083661;29;20074;-84
2021/06/29 07:06:05;;;;;;;22.58;11.43;;;;;;;16.92;71.03;101267.56;4061896;29;20040;-83
2021/06/29 07:08:06;;;;;;;20.95;10.30;;;;;;;16.87;71.25;101262.81;4081067;29;20024;-83
2021/06/29 07:10:07;;;;;;;25.58;11.45;;;;;;;16.93;71.45;101274.78;4049904;29;20538;-86
2021/06/29 07:12:08;;;;;;;29.45;12.43;;;;;;;16.86;71.46;101282.41;4079346;29;20039;-83
2021/06/29 07:14:10;;;;;;;21.95;11.20;;;;;;;16.85;71.60;101270.53;4080431;29;20430;-83
2021/06/29 07:16:10;;;;;;;29.52;13.13;;;;;;;16.82;71.62;101284.00;4081079;29;20106;-83
2021/06/29 07:18:18;;;;;;;23.02;11.98;;;;;;;16.74;71.85;101276.97;4064317;29;20032;-84
2021/06/29 07:20:19;;;;;;;22.13;12.25;;;;;;;16.84;71.50;101284.59;4086116;29;20581;-84
2021/06/29 07:22:19;;;;;;;26.05;12.40;;;;;;;16.87;71.51;101289.63;4062467;29;20035;-83
2021/06/29 07:24:20;;;;;;;24.50;12.77;;;;;;;16.81;71.49;101280.41;4086544;29;20085;-82
2021/06/29 07:26:22;;;;;;;23.83;11.77;;;;;;;16.90;71.71;101284.41;4061554;29;20060;-83
2021/06/29 07:28:22;;;;;;;27.85;13.40;;;;;;;16.89;71.62;101288.25;4078612;29;20747;-82
2021/06/29 07:30:23;;;;;;;32.28;14.38;;;;;;;16.87;71.68;101295.16;4049937;29;20035;-83
2021/06/29 07:32:23;;;;;;;38.67;14.80;;;;;;;16.77;71.89;101283.94;4080876;29;20071;-85
2021/06/29 07:34:24;;;;;;;31.45;13.57;;;;;;;16.80;72.23;101275.97;4082299;29;20135;-84
2021/06/29 07:36:24;;;;;;;29.52;12.93;;;;;;;16.88;71.59;101280.22;4066256;29;20032;-85
2021/06/29 07:38:25;;;;;;;27.35;12.65;;;;;;;16.90;71.71;101276.13;4064521;29;20032;-84
2021/06/29 07:40:25;;;;;;;25.63;13.52;;;;;;;16.92;72.33;101275.88;4059960;29;20036;-84
2021/06/29 07:42:26;;;;;;;24.33;13.15;;;;;;;16.92;72.11;101273.94;4084837;29;20085;-84
2021/06/29 07:44:27;;;;;;;27.42;13.98;;;;;;;16.95;72.33;101277.28;4083688;29;20582;-87
2021/06/29 07:46:28;;;;;;;24.83;14.60;;;;;;;17.00;72.06;101283.72;4081800;29;20498;-85
2021/06/29 07:48:29;;;;;;;33.22;13.27;;;;;;;16.94;72.79;101284.72;4050425;29;20073;-84
2021/06/29 07:50:30;;;;;;;28.67;14.25;;;;;;;16.87;72.90;101287.69;4066374;29;20461;-86
2021/06/29 07:52:31;;;;;;;29.92;15.27;;;;;;;16.87;73.18;101282.16;4077710;29;20050;-85
2021/06/29 07:54:31;;;;;;;22.63;12.63;;;;;;;16.86;73.17;101293.47;4063161;29;20076;-85
2021/06/29 07:56:33;;;;;;;23.88;13.60;;;;;;;16.83;73.62;101282.91;4049647;29;20034;-86
2021/06/29 07:58:34;;;;;;;27.38;13.95;;;;;;;16.71;73.11;101285.78;4078576;29;20099;-85
2021/06/29 08:00:37;;;;;;;28.17;14.40;;;;;;;16.64;73.41;101283.16;4045997;29;20043;-85
2021/06/29 08:02:37;;;;;;;27.80;14.70;;;;;;;16.70;73.40;101284.94;4063528;29;20039;-84
2021/06/29 08:04:38;;;;;;;28.83;15.60;;;;;;;16.63;73.58;101278.72;4060316;29;20055;-86
2021/06/29 08:06:38;;;;;;;29.90;15.00;;;;;;;16.67;73.78;101284.63;4063330;29;20039;-86
2021/06/29 08:08:40;;;;;;;26.42;13.52;;;;;;;16.81;73.31;101280.41;4079390;29;20079;-85
2021/06/29 08:10:40;;;;;;;23.65;13.77;;;;;;;16.81;73.71;101274.88;4061229;29;20102;-85
2021/06/29 08:12:41;;;;;;;24.33;15.23;;;;;;;16.69;73.92;101272.22;4063851;29;20040;-85
2021/06/29 08:14:42;;;;;;;21.70;13.32;;;;;;;16.76;73.94;101261.00;4061685;29;20149;-87
2021/06/29 08:16:45;;;;;;;27.35;13.95;;;;;;;16.69;74.19;101255.63;4082033;29;20083;-85
2021/06/29 08:18:45;;;;;;;25.50;12.77;;;;;;;16.85;73.68;101248.41;4083141;29;20046;-85
2021/06/29 08:20:46;;;;;;;23.85;12.73;;;;;;;16.93;73.85;101263.72;4078024;29;20570;-85
2021/06/29 08:22:48;;;;;;;25.70;13.23;;;;;;;17.00;73.80;101269.88;4058644;29;20124;-85
2021/06/29 08:24:49;;;;;;;24.50;14.32;;;;;;;17.06;73.74;101281.88;4061767;29;20696;-86
2021/06/29 08:26:51;;;;;;;29.95;13.63;;;;;;;16.95;73.34;101274.53;4065993;29;20059;-87
2021/06/29 08:28:51;;;;;;;25.42;12.63;;;;;;;16.94;72.89;101273.66;4081008;28;20040;-83
2021/06/29 08:30:52;;;;;;;20.52;12.43;;;;;;;16.85;73.07;101278.81;4077737;29;20042;-85
2021/06/29 08:32:53;;;;;;;18.80;12.30;;;;;;;17.02;73.30;101281.53;4076956;29;20039;-86
2021/06/29 08:34:54;;;;;;;28.05;13.98;;;;;;;17.10;72.93;101261.72;4065185;29;20040;-86
2021/06/29 08:36:54;;;;;;;22.83;14.63;;;;;;;17.24;72.57;101261.31;4067739;29;20040;-85
2021/06/29 08:38:55;;;;;;;20.73;12.77;;;;;;;17.32;73.09;101271.97;4065581;29;20043;-87
2021/06/29 08:40:55;;;;;;;22.13;12.50;;;;;;;17.13;72.75;101271.44;4081306;29;20032;-86
2021/06/29 08:42:56;;;;;;;21.42;12.98;;;;;;;17.19;72.48;101267.63;4079157;29;20024;-86
2021/06/29 08:44:56;;;;;;;19.10;11.95;;;;;;;17.22;72.18;101267.13;4063533;29;20726;-84
2021/06/29 08:46:57;;;;;;;17.42;11.48;;;;;;;17.30;72.53;101271.34;4079100;29;20541;-87
2021/06/29 08:48:57;;;;;;;20.67;12.35;;;;;;;17.39;72.12;101274.53;4066091;29;20021;-86
2021/06/29 08:51:05;;;;;;;23.90;14.68;;;;;;;17.35;71.91;101271.44;4080380;29;20070;-85
2021/06/29 08:53:09;;;;;;;21.35;12.60;;;;;;;17.26;71.71;101270.22;4059190;29;20577;-84
2021/06/29 08:55:11;;;;;;;19.20;12.52;;;;;;;17.11;71.82;101259.78;4062598;29;20046;-83
2021/06/29 08:57:11;;;;;;;20.38;12.73;;;;;;;17.40;72.02;101263.19;4050935;29;20531;-86
2021/06/29 08:59:12;;;;;;;21.63;11.23;;;;;;;17.33;71.71;101251.47;4063449;29;20043;-86
2021/06/29 09:01:13;;;;;;;15.77;11.38;;;;;;;17.27;71.26;101256.13;4033736;29;20140;-83
2021/06/29 09:03:13;;;;;;;19.35;11.80;;;;;;;17.45;71.86;101262.41;4066749;29;20032;-82
2021/06/29 09:05:21;;;;;;;19.75;11.35;;;;;;;17.52;71.05;101263.09;4027046;29;20536;-83
2021/06/29 09:07:29;;;;;;;19.13;12.43;;;;;;;17.40;71.20;101259.59;4060683;29;20386;-84
2021/06/29 09:09:31;;;;;;;19.20;10.73;;;;;;;17.45;71.10;101268.78;4060029;29;20339;-81
2021/06/29 09:11:36;;;;;;;16.63;11.70;;;;;;;17.40;70.50;101265.97;4058850;29;20051;-85
2021/06/29 09:13:39;;;;;;;20.35;11.27;;;;;;;17.22;70.82;101261.59;4058720;29;20044;-82
2021/06/29 09:15:47;;;;;;;17.85;11.40;;;;;;;17.23;71.89;101270.75;4062680;29;20039;-81
2021/06/29 09:17:47;;;;;;;18.15;11.13;;;;;;;17.09;71.73;101265.56;4062443;29;20080;-82
2021/06/29 09:19:48;;;;;;;17.13;9.90;;;;;;;17.17;72.18;101275.34;4062955;29;20491;-83
2021/06/29 09:21:48;;;;;;;19.70;10.40;;;;;;;17.11;72.03;101279.16;4046971;29;20115;-83